Latest Weather Observations for Rolleston Airport

IDQ60801

Issued at 3:35 pm EST Sunday 21 September 2014 (issued every 30 minutes, with the page automatically refreshed every 10 minutes)

About weather observations | Map of weather stations | Latest weather observations for QLD | Other Formats
Station Details ID: 035129 Name: ROLLESTON AIRPORT Lat: -24.46 Lon: 148.63 Height: 219.45 m
Data from the previous 72 hours. | See also: Recent months at Rolleston Airport
Date/Time
EST
Temp
°C
App
Temp
°C
Dew
Point
Rel
Hum
%
Delta-T
°C
Wind Press
QNH
hPa
Press
MSL
hPa
Rain
since 9 am
mm
Dir
 
Spd
km/h
Gust
km/h
Spd
kts
Gust
kts
21/03:30pm 15.0 14.0 12.3 84 1.5 SW 9 15 5 8 1022.7 1022.0 20.6
21/03:00pm 14.9 14.4 12.6 86 1.3 SSW 7 11 4 6 1022.1 1021.4 20.6
21/02:30pm 15.1 14.1 12.4 84 1.5 SW 9 13 5 7 1022.6 1021.9 20.0
21/02:00pm 15.1 13.4 12.6 85 1.4 WSW 13 24 7 13 1022.6 1021.9 20.0
21/01:30pm 15.4 14.4 13.4 88 1.1 SW 11 19 6 10 1022.8 1022.1 19.6
21/01:00pm 15.3 14.0 13.7 90 0.9 SW 13 19 7 10 1023.0 1022.3 18.8
21/12:30pm 14.7 13.9 13.9 95 0.5 SW 11 15 6 8 1023.3 1022.7 18.4
21/12:00pm 15.0 12.1 14.0 94 0.6 SW 22 33 12 18 1023.7 1023.1 15.6
21/11:30am 15.6 15.1 14.8 95 0.5 SSW 11 17 6 9 1023.4 1022.8 12.4
21/11:00am 15.3 13.9 14.5 95 0.5 S 15 24 8 13 1023.3 1022.7 11.8
21/10:30am 16.0 16.1 15.4 96 0.4 SSW 9 17 5 9 1023.6 1023.0 7.0
21/10:00am 16.0 16.4 14.7 92 0.7 SSW 6 11 3 6 1024.1 1023.5 0.8
21/09:30am 15.8 15.4 14.0 89 1.0 SSW 9 15 5 8 1023.8 1023.2 0.2
21/09:00am 17.0 16.7 14.5 85 1.4 SSW 9 15 5 8 1023.8 1023.2 0.2
21/08:30am 18.3 17.9 13.0 71 3.0 SW 7 11 4 6 1023.5 1022.9 0.0
21/08:00am 18.4 19.0 13.1 71 3.0 SE 2 6 1 3 1022.6 1021.9 0.0
21/07:30am 18.4 17.7 13.1 71 3.0 E 9 13 5 7 1021.8 1021.1 0.0
21/07:00am 17.8 17.3 12.7 72 2.9 E 7 13 4 7 1021.5 1020.8 0.0
21/06:30am 17.5 15.9 12.8 74 2.6 E 13 19 7 10 1020.7 1020.1 0.0
21/06:00am 17.4 16.7 13.1 76 2.4 E 9 13 5 7 1020.5 1019.9 0.0
21/05:30am 17.3 16.6 13.2 77 2.3 E 9 11 5 6 1020.1 1019.5 0.0
21/05:00am 17.5 16.6 13.6 78 2.2 ENE 11 15 6 8 1019.7 1019.1 0.0
21/04:30am 17.6 16.6 13.5 77 2.3 E 11 17 6 9 1019.3 1018.7 0.0
21/04:00am 17.5 15.4 12.4 72 2.8 E 15 20 8 11 1019.2 1018.5 0.0
21/03:30am 17.0 15.2 12.1 73 2.7 E 13 19 7 10 1019.5 1018.9 0.0
21/03:00am 16.3 13.2 11.7 74 2.5 ENE 19 24 10 13 1019.8 1019.2 0.0
21/02:30am 18.0 15.6 9.9 59 4.3 E 13 19 7 10 1019.9 1019.3 0.0
21/02:00am 18.1 15.8 5.7 44 6.1 ESE 7 9 4 5 1020.4 1019.8 0.0
21/01:30am 18.1 16.3 5.3 43 6.3 ENE 4 6 2 3 1020.7 1020.1 0.0
21/01:00am 18.0 15.1 2.7 36 7.1 SSE 7 9 4 5 1020.5 1019.9 0.0
21/12:30am 17.9 15.4 3.8 39 6.7 S 6 9 3 5 1020.7 1020.1 0.0
21/12:00am 16.4 12.4 2.8 40 6.2 SE 13 15 7 8 1020.0 1019.4 0.0
 
Date/Time
EST
Temp
°C
App
Temp
°C
Dew
Point
Rel
Hum
%
Delta-T
°C
Wind Press
QNH
hPa
Press
MSL
hPa
Rain
since 9 am
mm
Dir
 
Spd
km/h
Gust
km/h
Spd
kts
Gust
kts
20/11:30pm 17.5 12.9 1.5 34 7.2 SSE 15 20 8 11 1020.1 1019.5 0.0
20/11:00pm 18.2 14.2 0.8 31 7.8 SSE 11 17 6 9 1020.1 1019.5 0.0
20/10:30pm 18.5 14.6 1.1 31 7.8 SE 11 17 6 9 1020.0 1019.4 0.0
20/10:00pm 19.5 15.5 0.5 28 8.5 SSE 11 15 6 8 1019.6 1019.0 0.0
20/09:30pm 18.7 15.0 2.5 34 7.5 SSE 11 13 6 7 1019.5 1018.9 0.0
20/09:00pm 19.5 16.9 4.0 36 7.5 S 7 11 4 6 1019.1 1018.4 0.0
20/08:30pm 19.3 16.8 3.9 36 7.4 S 6 7 3 4 1018.6 1017.9 0.0
20/08:00pm 20.6 18.1 4.6 35 7.8 SE 7 7 4 4 1018.2 1017.5 0.0
20/07:30pm 21.3 18.4 4.8 34 8.2 SE 9 11 5 6 1017.9 1017.2 0.0
20/07:00pm 22.6 20.6 4.2 30 9.1 S 4 6 2 3 1017.7 1017.0 0.0
20/06:30pm 23.3 21.3 4.3 29 9.4 S 4 4 2 2 1017.1 1016.4 0.0
20/06:00pm 25.5 23.5 4.6 26 10.6 S 4 6 2 3 1016.5 1015.9 0.0
20/05:30pm 27.0 25.1 4.7 24 11.4 W 4 9 2 5 1016.2 1015.6 0.0
20/05:00pm 27.0 24.5 4.7 24 11.4 SSE 7 11 4 6 1015.7 1015.1 0.0
20/04:30pm 27.3 25.0 5.6 25 11.3 S 7 13 4 7 1015.5 1014.9 0.0
20/04:00pm 28.0 25.8 6.2 25 11.5 WSW 7 17 4 9 1015.1 1014.4 0.0
20/03:30pm 27.7 25.9 7.0 27 11.1 W 6 11 3 6 1015.0 1014.3 0.0
20/03:00pm 25.9 24.3 6.5 29 10.2 SSW 4 7 2 4 1015.2 1014.5 0.0
20/02:30pm 27.1 24.8 7.5 29 10.6 SE 9 19 5 10 1015.5 1014.9 0.0
20/02:00pm 26.0 24.1 7.6 31 9.9 NNW 7 15 4 8 1015.8 1015.2 0.0
20/01:30pm 26.1 24.6 8.6 33 9.6 NE 6 11 3 6 1016.4 1015.8 0.0
20/01:00pm 25.6 23.7 7.7 32 9.6 SW 7 13 4 7 1017.1 1016.4 0.0
20/12:30pm 25.6 23.5 8.1 33 9.5 SSE 9 17 5 9 1017.5 1016.8 0.0
20/12:00pm 24.9 22.8 8.4 35 8.9 WSW 9 15 5 8 1018.0 1017.3 0.0
20/11:30am 23.8 22.1 7.4 35 8.7 ESE 6 11 3 6 1018.6 1017.9 0.0
20/11:00am 23.5 21.8 8.4 38 8.1 SSE 7 15 4 8 1019.3 1018.7 0.0
20/10:30am 22.6 21.3 7.6 38 7.9 ENE 4 9 2 5 1019.8 1019.2 0.0
20/10:00am 21.9 20.7 8.1 41 7.3 E 4 7 2 4 1020.2 1019.6 0.0
20/09:30am 21.3 18.5 5.2 35 8.0 S 9 19 5 10 1020.4 1019.8 0.0
20/09:00am 20.3 16.6 2.6 31 8.3 S 11 20 6 11 1020.6 1020.0 0.0
20/08:30am 19.4 15.2 1.4 30 8.2 S 13 22 7 12 1020.7 1020.1 0.0
20/08:00am 18.2 13.8 0.4 30 7.9 S 13 19 7 10 1020.7 1020.1 0.0
20/07:30am 15.9 12.6 0.1 34 6.8 S 7 11 4 6 1020.5 1019.9 0.0
20/07:00am 14.0 10.7 0.3 39 5.8 SSE 7 9 4 5 1020.0 1019.4 0.0
20/06:30am 12.8 9.7 0.2 42 5.3 S 6 7 3 4 1019.6 1019.0 0.0
20/06:00am 12.4 9.7 0.2 43 5.1 S 4 6 2 3 1019.2 1018.5 0.0
20/05:30am 13.1 9.9 0.5 42 5.3 SSE 7 9 4 5 1018.7 1018.0 0.0
20/05:00am 13.5 10.4 0.2 40 5.6 S 6 7 3 4 1018.2 1017.5 0.0
20/04:30am 13.9 11.0 1.2 42 5.5 SSW 6 7 3 4 1017.9 1017.2 0.0
20/04:00am 15.3 12.2 -0.1 35 6.6 SW 6 9 3 5 1017.7 1017.0 0.0
20/03:30am 14.2 11.4 1.8 43 5.5 WNW 6 9 3 5 1017.7 1017.0 0.0
20/03:00am 16.1 13.3 1.8 38 6.4 SSW 6 7 3 4 1017.7 1017.0 0.0
20/02:30am 17.9 14.5 -0.8 28 8.1 W 7 11 4 6 1018.0 1017.3 0.0
20/02:00am 18.1 14.5 0.3 30 7.9 W 9 11 5 6 1018.2 1017.5 0.0
20/01:30am 17.7 14.7 2.1 35 7.1 W 7 9 4 5 1018.0 1017.3 0.0
20/01:00am 18.6 15.7 4.8 40 6.7 WNW 9 17 5 9 1018.0 1017.3 0.0
20/12:30am 19.5 16.3 5.2 39 7.1 WNW 11 17 6 9 1018.2 1017.5 0.0
20/12:00am 20.2 16.3 1.1 28 8.7 WNW 11 20 6 11 1018.2 1017.5 0.0
 
Date/Time
EST
Temp
°C
App
Temp
°C
Dew
Point
Rel
Hum
%
Delta-T
°C
Wind Press
QNH
hPa
Press
MSL
hPa
Rain
since 9 am
mm
Dir
 
Spd
km/h
Gust
km/h
Spd
kts
Gust
kts
19/11:30pm 20.2 16.6 0.6 27 8.9 NW 9 17 5 9 1018.0 1017.3 0.0
19/11:00pm 18.4 16.0 2.3 34 7.4 W 4 13 2 7 1017.4 1016.7 0.0
19/10:30pm 18.2 14.0 1.7 33 7.5 SSW 13 24 7 13 1017.2 1016.5 0.0
19/10:00pm 18.8 17.2 2.6 34 7.5 CALM 0 0 0 0 1016.7 1016.0 0.0
19/09:30pm 20.3 17.1 3.1 32 8.2 NNE 9 11 5 6 1016.7 1016.0 0.0
19/09:00pm 20.8 17.9 2.6 30 8.6 NNE 7 11 4 6 1016.5 1015.9 0.0
19/08:30pm 21.9 18.6 2.6 28 9.2 NNE 9 11 5 6 1016.5 1015.9 0.0
19/08:00pm 21.9 18.5 1.6 26 9.5 NNE 9 11 5 6 1016.4 1015.8 0.0
19/07:30pm 22.3 19.2 1.3 25 9.8 NNE 7 9 4 5 1016.4 1015.8 0.0
19/07:00pm 23.0 20.0 0.8 23 10.3 N 6 7 3 4 1016.3 1015.7 0.0
19/06:30pm 23.9 20.5 -0.4 20 11.1 NNW 7 9 4 5 1016.0 1015.4 0.0
19/06:00pm 25.3 21.4 -1.5 17 12.1 NW 9 13 5 7 1015.8 1015.2 0.0
19/05:30pm 27.8 25.4 -0.3 16 13.3 N 2 7 1 4 1015.6 1015.0 0.0
19/05:00pm 28.2 24.8 -0.9 15 13.6 NNW 7 11 4 6 1015.3 1014.7 0.0
19/04:30pm 28.4 24.1 -1.6 14 13.9 NW 11 20 6 11 1014.9 1014.2 0.0
19/04:00pm 28.4 24.6 -0.7 15 13.7 WNW 9 19 5 10 1014.9 1014.2 0.0
19/03:30pm 28.5 24.9 0.3 16 13.5 NNW 9 17 5 9 1014.9 1014.2 0.0
19/03:00pm 28.6 25.0 0.3 16 13.6 NNW 9 22 5 12 1015.2 1014.5 0.0
19/02:30pm 26.9 23.1 -1.0 16 12.9 WNW 9 17 5 9 1015.6 1015.0 0.0
19/02:00pm 27.7 23.3 0.5 17 13.0 WNW 13 22 7 12 1016.1 1015.5 0.0
19/01:30pm 27.9 24.3 0.6 17 13.1 N 9 15 5 8 1016.8 1016.1 0.0
19/01:00pm 27.2 23.1 0.1 17 12.8 WNW 11 19 6 10 1017.4 1016.7 0.0
19/12:30pm 26.0 22.7 -0.1 18 12.2 WNW 7 13 4 7 1018.0 1017.3 0.0
19/12:00pm 26.0 21.2 -0.1 18 12.2 NNW 15 24 8 13 1018.8 1018.1 0.0
19/11:30am 25.4 22.3 1.5 21 11.5 NW 7 15 4 8 1019.3 1018.7 0.0
19/11:00am 24.2 20.7 1.2 22 10.8 NNE 9 15 5 8 1019.9 1019.3 0.0
19/10:30am 24.1 20.7 1.7 23 10.7 NNW 9 19 5 10 1020.5 1019.9 0.0
19/10:00am 22.8 19.9 1.2 24 10.1 NE 6 13 3 7 1020.8 1020.2 0.0
19/09:30am 22.1 18.6 1.2 25 9.7 ENE 9 13 5 7 1021.1 1020.5 0.0
19/09:00am 20.9 17.6 0.2 25 9.3 ESE 7 13 4 7 1021.2 1020.6 0.0
19/08:30am 18.4 15.2 0.5 30 8.0 SSE 7 11 4 6 1021.3 1020.7 0.0
19/08:00am 16.1 12.8 -0.2 33 7.0 S 7 13 4 7 1021.3 1020.7 0.0
19/07:30am 14.1 11.1 1.1 41 5.6 SSE 6 9 3 5 1021.1 1020.5 0.0
19/07:00am 11.4 8.3 1.4 50 4.2 SSE 7 9 4 5 1020.8 1020.2 0.0
19/06:30am 8.3 4.8 1.5 62 2.8 SSE 9 9 5 5 1020.6 1020.0 0.0
19/06:00am 7.1 3.8 0.3 62 2.7 S 7 9 4 5 1020.5 1019.9 0.0
19/05:30am 7.5 4.1 -0.5 57 3.1 SSE 7 9 4 5 1020.1 1019.5 0.0
19/05:00am 8.2 4.6 0.7 59 3.0 SSE 9 9 5 5 1019.5 1018.9 0.0
19/04:30am 7.4 4.2 1.0 64 2.6 S 7 7 4 4 1019.5 1018.9 0.0
19/04:00am 7.7 4.8 1.3 64 2.6 SSW 6 7 3 4 1019.7 1019.1 0.0
19/03:30am 8.1 5.4 0.3 58 3.1 SSW 4 6 2 3 1019.4 1018.8 0.0
19/03:00am 9.7 7.2 -0.8 48 4.2 NNE 2 4 1 2 1019.3 1018.7 0.0
19/02:30am 10.8 8.2 0.8 50 4.2 SE 4 6 2 3 1019.4 1018.8 0.0
19/02:00am 10.3 8.1 0.9 52 3.9 SSW 2 4 1 2 1019.1 1018.4 0.0
19/01:30am 10.4 7.2 -0.4 47 4.4 SW 6 7 3 4 1019.3 1018.7 0.0
19/01:00am 11.0 8.1 -1.1 43 4.8 S 4 6 2 3 1019.1 1018.4 0.0
19/12:30am 11.3 8.2 0.4 47 4.5 SSE 6 7 3 4 1019.2 1018.5 0.0
19/12:00am 11.0 7.6 -0.8 44 4.7 SSE 7 9 4 5 1019.4 1018.8 0.0
 
Date/Time
EST
Temp
°C
App
Temp
°C
Dew
Point
Rel
Hum
%
Delta-T
°C
Wind Press
QNH
hPa
Press
MSL
hPa
Rain
since 9 am
mm
Dir
 
Spd
km/h
Gust
km/h
Spd
kts
Gust
kts
18/11:30pm 12.5 8.7 -1.1 39 5.5 SSE 9 9 5 5 1019.4 1018.8 0.0
18/11:00pm 12.6 8.6 -2.1 36 5.8 SSE 9 11 5 6 1019.5 1018.9 0.0
18/10:30pm 13.3 9.7 -2.2 34 6.2 SSE 7 9 4 5 1019.6 1019.0 0.0
18/10:00pm 14.9 11.4 -3.0 29 7.1 SSE 6 7 3 4 1019.4 1018.8 0.0
18/09:30pm 16.0 12.3 -3.0 27 7.7 SSE 7 9 4 5 1019.4 1018.8 0.0
18/09:00pm 17.0 12.8 -3.7 24 8.3 SSE 9 9 5 5 1019.4 1018.8 0.0
18/08:30pm 16.9 13.3 -2.2 27 7.9 SE 7 7 4 4 1019.2 1018.5 0.0
18/08:00pm 18.1 14.6 -1.7 26 8.4 SE 7 11 4 6 1018.9 1018.2 0.0
18/07:30pm 18.7 16.2 -1.2 26 8.6 NE 2 4 1 2 1018.6 1017.9 0.0
18/07:00pm 21.0 17.4 -3.5 19 10.3 SE 6 7 3 4 1018.1 1017.4 0.0
18/06:30pm 22.6 18.8 -5.3 15 11.5 SSE 6 6 3 3 1017.7 1017.0 0.0
18/06:00pm 23.2 19.5 -4.8 15 11.7 SSE 6 7 3 4 1017.4 1016.7 0.0
18/05:30pm 25.1 21.4 -4.2 14 12.6 ESE 6 7 3 4 1017.1 1016.4 0.0
18/05:00pm 26.0 21.1 -6.7 11 13.5 SSE 11 17 6 9 1016.9 1016.2 0.0
18/04:30pm 26.9 22.9 -6.0 11 13.9 SSW 7 11 4 6 1016.5 1015.9 0.0
18/04:00pm 26.9 23.0 -4.9 12 13.7 SE 7 17 4 9 1016.3 1015.7 0.0

Other Formats:

Comma delimited format used in spreadsheet applications
http://www.bom.gov.au/fwo/IDQ60801/IDQ60801.94396.axf

JavaScript Object Notation format (JSON) in row-major order
http://www.bom.gov.au/fwo/IDQ60801/IDQ60801.94396.json